sensor_id;sensor_type;location;lat;lon;timestamp;temperature;humidity
49821;DHT22;36893;52.520;13.450;2023-12-20T00:09:29;20.90;87.70
49821;DHT22;36893;52.520;13.450;2023-12-20T00:19:30;20.90;87.80
49821;DHT22;36893;52.520;13.450;2023-12-20T00:29:30;20.90;87.80
49821;DHT22;36893;52.520;13.450;2023-12-20T00:39:31;20.90;87.70
49821;DHT22;36893;52.520;13.450;2023-12-20T00:49:33;20.90;87.70
49821;DHT22;36893;52.520;13.450;2023-12-20T00:59:34;20.90;87.70
49821;DHT22;36893;52.520;13.450;2023-12-20T01:09:34;20.90;87.70
49821;DHT22;36893;52.520;13.450;2023-12-20T01:19:35;20.90;87.70
49821;DHT22;36893;52.520;13.450;2023-12-20T01:29:38;20.90;87.70
49821;DHT22;36893;52.520;13.450;2023-12-20T01:39:39;20.90;87.70
49821;DHT22;36893;52.520;13.450;2023-12-20T01:49:40;20.90;87.70
49821;DHT22;36893;52.520;13.450;2023-12-20T01:59:40;20.90;87.70
49821;DHT22;36893;52.520;13.450;2023-12-20T02:09:48;20.90;87.70
49821;DHT22;36893;52.520;13.450;2023-12-20T02:19:54;20.90;87.70
49821;DHT22;36893;52.520;13.450;2023-12-20T02:29:55;20.80;87.70
49821;DHT22;36893;52.520;13.450;2023-12-20T02:39:55;20.80;87.70
49821;DHT22;36893;52.520;13.450;2023-12-20T02:49:56;20.80;87.70
49821;DHT22;36893;52.520;13.450;2023-12-20T02:59:57;20.80;87.70
49821;DHT22;36893;52.520;13.450;2023-12-20T03:09:57;20.80;87.70
49821;DHT22;36893;52.520;13.450;2023-12-20T03:19:58;20.80;87.70
49821;DHT22;36893;52.520;13.450;2023-12-20T03:29:58;20.80;87.70
49821;DHT22;36893;52.520;13.450;2023-12-20T03:39:59;20.80;87.70
49821;DHT22;36893;52.520;13.450;2023-12-20T03:50:00;20.80;87.70
49821;DHT22;36893;52.520;13.450;2023-12-20T04:00:01;20.80;87.70
49821;DHT22;36893;52.520;13.450;2023-12-20T04:10:01;20.80;87.80
49821;DHT22;36893;52.520;13.450;2023-12-20T04:20:04;20.80;87.80
49821;DHT22;36893;52.520;13.450;2023-12-20T04:30:06;20.80;87.80
49821;DHT22;36893;52.520;13.450;2023-12-20T04:40:08;20.80;87.90
49821;DHT22;36893;52.520;13.450;2023-12-20T04:50:09;20.80;87.90
49821;DHT22;36893;52.520;13.450;2023-12-20T05:00:10;20.80;88.00
49821;DHT22;36893;52.520;13.450;2023-12-20T05:10:11;20.80;87.90
49821;DHT22;36893;52.520;13.450;2023-12-20T05:20:12;20.80;88.00
49821;DHT22;36893;52.520;13.450;2023-12-20T05:30:13;20.80;88.10
49821;DHT22;36893;52.520;13.450;2023-12-20T05:40:14;20.80;88.10
49821;DHT22;36893;52.520;13.450;2023-12-20T05:50:15;20.80;88.00
49821;DHT22;36893;52.520;13.450;2023-12-20T06:00:16;20.80;87.80
49821;DHT22;36893;52.520;13.450;2023-12-20T06:10:17;20.80;87.90
49821;DHT22;36893;52.520;13.450;2023-12-20T06:20:17;20.80;87.90
49821;DHT22;36893;52.520;13.450;2023-12-20T06:30:18;20.80;87.80
49821;DHT22;36893;52.520;13.450;2023-12-20T06:40:19;20.80;87.80
49821;DHT22;36893;52.520;13.450;2023-12-20T06:50:19;20.80;87.70
49821;DHT22;36893;52.520;13.450;2023-12-20T07:00:20;20.70;87.60
49821;DHT22;36893;52.520;13.450;2023-12-20T07:10:21;20.70;87.60
49821;DHT22;36893;52.520;13.450;2023-12-20T07:20:22;20.70;87.50
49821;DHT22;36893;52.520;13.450;2023-12-20T07:30:22;20.70;87.50
49821;DHT22;36893;52.520;13.450;2023-12-20T07:40:23;20.70;87.40
49821;DHT22;36893;52.520;13.450;2023-12-20T07:50:24;20.80;87.50
49821;DHT22;36893;52.520;13.450;2023-12-20T08:00:25;20.80;87.20
49821;DHT22;36893;52.520;13.450;2023-12-20T08:10:25;20.90;87.00
49821;DHT22;36893;52.520;13.450;2023-12-20T08:20:27;20.90;87.30
49821;DHT22;36893;52.520;13.450;2023-12-20T08:30:28;20.90;87.30
49821;DHT22;36893;52.520;13.450;2023-12-20T08:40:29;21.00;87.50
49821;DHT22;36893;52.520;13.450;2023-12-20T08:50:30;20.90;87.60
49821;DHT22;36893;52.520;13.450;2023-12-20T09:00:31;20.90;87.90
49821;DHT22;36893;52.520;13.450;2023-12-20T09:10:32;20.80;87.90
49821;DHT22;36893;52.520;13.450;2023-12-20T09:20:33;20.80;87.90
49821;DHT22;36893;52.520;13.450;2023-12-20T09:30:34;20.80;88.00
49821;DHT22;36893;52.520;13.450;2023-12-20T09:40:41;20.80;87.90
49821;DHT22;36893;52.520;13.450;2023-12-20T09:50:41;20.80;88.00
49821;DHT22;36893;52.520;13.450;2023-12-20T10:00:42;20.70;87.80
49821;DHT22;36893;52.520;13.450;2023-12-20T10:10:43;20.80;87.90
49821;DHT22;36893;52.520;13.450;2023-12-20T10:20:44;20.80;87.90
49821;DHT22;36893;52.520;13.450;2023-12-20T10:30:45;20.80;87.90
49821;DHT22;36893;52.520;13.450;2023-12-20T10:40:46;20.80;87.80
49821;DHT22;36893;52.520;13.450;2023-12-20T10:50:47;20.70;87.80
49821;DHT22;36893;52.520;13.450;2023-12-20T11:00:49;20.80;87.70
49821;DHT22;36893;52.520;13.450;2023-12-20T11:11:02;20.70;87.70
49821;DHT22;36893;52.520;13.450;2023-12-20T11:21:06;20.70;87.50
49821;DHT22;36893;52.520;13.450;2023-12-20T11:31:06;20.70;87.50
49821;DHT22;36893;52.520;13.450;2023-12-20T11:41:07;20.70;87.50
49821;DHT22;36893;52.520;13.450;2023-12-20T11:51:10;20.70;87.40
49821;DHT22;36893;52.520;13.450;2023-12-20T12:01:11;20.70;87.40
49821;DHT22;36893;52.520;13.450;2023-12-20T12:11:12;20.70;87.40
49821;DHT22;36893;52.520;13.450;2023-12-20T12:21:20;20.70;87.30
49821;DHT22;36893;52.520;13.450;2023-12-20T12:31:21;20.70;87.30
49821;DHT22;36893;52.520;13.450;2023-12-20T12:41:21;20.70;87.20
49821;DHT22;36893;52.520;13.450;2023-12-20T12:51:22;20.70;87.10
49821;DHT22;36893;52.520;13.450;2023-12-20T13:01:23;20.70;87.00
49821;DHT22;36893;52.520;13.450;2023-12-20T13:11:23;20.70;87.00
49821;DHT22;36893;52.520;13.450;2023-12-20T13:21:25;20.70;86.90
49821;DHT22;36893;52.520;13.450;2023-12-20T13:31:26;20.70;86.90
49821;DHT22;36893;52.520;13.450;2023-12-20T13:41:26;20.70;86.90
49821;DHT22;36893;52.520;13.450;2023-12-20T13:51:27;20.70;86.80
49821;DHT22;36893;52.520;13.450;2023-12-20T14:01:28;20.70;86.70
49821;DHT22;36893;52.520;13.450;2023-12-20T14:11:29;20.70;86.70
49821;DHT22;36893;52.520;13.450;2023-12-20T14:21:29;20.70;86.60
49821;DHT22;36893;52.520;13.450;2023-12-20T14:31:30;20.70;86.60
49821;DHT22;36893;52.520;13.450;2023-12-20T14:41:31;20.70;86.50
49821;DHT22;36893;52.520;13.450;2023-12-20T14:51:31;20.70;86.50
49821;DHT22;36893;52.520;13.450;2023-12-20T15:01:32;20.70;86.50
49821;DHT22;36893;52.520;13.450;2023-12-20T15:11:33;20.60;87.10
49821;DHT22;36893;52.520;13.450;2023-12-20T15:21:33;20.60;86.40
49821;DHT22;36893;52.520;13.450;2023-12-20T15:31:46;20.60;86.30
49821;DHT22;36893;52.520;13.450;2023-12-20T15:41:48;20.60;86.30
49821;DHT22;36893;52.520;13.450;2023-12-20T15:51:50;20.60;86.30
49821;DHT22;36893;52.520;13.450;2023-12-20T16:01:50;20.60;86.20
49821;DHT22;36893;52.520;13.450;2023-12-20T16:11:51;20.60;86.10
49821;DHT22;36893;52.520;13.450;2023-12-20T16:21:51;20.60;86.10
49821;DHT22;36893;52.520;13.450;2023-12-20T16:31:52;20.60;86.00
49821;DHT22;36893;52.520;13.450;2023-12-20T16:41:53;20.60;86.00
49821;DHT22;36893;52.520;13.450;2023-12-20T16:51:53;20.60;86.00
49821;DHT22;36893;52.520;13.450;2023-12-20T17:01:54;20.60;86.00
49821;DHT22;36893;52.520;13.450;2023-12-20T17:11:55;20.60;86.00
49821;DHT22;36893;52.520;13.450;2023-12-20T17:21:56;20.60;85.90
49821;DHT22;36893;52.520;13.450;2023-12-20T17:31:56;20.60;85.90
49821;DHT22;36893;52.520;13.450;2023-12-20T17:41:57;20.60;85.80
49821;DHT22;36893;52.520;13.450;2023-12-20T17:51:57;20.60;85.80
49821;DHT22;36893;52.520;13.450;2023-12-20T18:01:58;20.60;85.80
49821;DHT22;36893;52.520;13.450;2023-12-20T18:11:59;20.50;85.90
49821;DHT22;36893;52.520;13.450;2023-12-20T18:22:00;20.50;86.00
49821;DHT22;36893;52.520;13.450;2023-12-20T18:32:00;20.50;86.10
49821;DHT22;36893;52.520;13.450;2023-12-20T18:42:01;20.50;86.10
49821;DHT22;36893;52.520;13.450;2023-12-20T18:52:03;20.50;86.00
49821;DHT22;36893;52.520;13.450;2023-12-20T19:02:06;20.60;86.10
49821;DHT22;36893;52.520;13.450;2023-12-20T19:12:09;20.60;86.10
49821;DHT22;36893;52.520;13.450;2023-12-20T19:22:09;20.60;86.00
49821;DHT22;36893;52.520;13.450;2023-12-20T19:32:10;20.60;86.00
49821;DHT22;36893;52.520;13.450;2023-12-20T19:42:11;20.50;86.00
49821;DHT22;36893;52.520;13.450;2023-12-20T19:52:11;20.60;86.00
49821;DHT22;36893;52.520;13.450;2023-12-20T20:02:12;20.60;86.00
49821;DHT22;36893;52.520;13.450;2023-12-20T20:12:13;20.60;86.00
49821;DHT22;36893;52.520;13.450;2023-12-20T20:22:13;20.60;86.00
49821;DHT22;36893;52.520;13.450;2023-12-20T20:32:19;20.80;85.80
49821;DHT22;36893;52.520;13.450;2023-12-20T20:42:20;20.90;85.50
49821;DHT22;36893;52.520;13.450;2023-12-20T20:52:20;21.00;85.40
49821;DHT22;36893;52.520;13.450;2023-12-20T21:02:21;21.10;85.20
49821;DHT22;36893;52.520;13.450;2023-12-20T21:12:22;20.90;85.10
49821;DHT22;36893;52.520;13.450;2023-12-20T21:22:25;20.80;85.30
49821;DHT22;36893;52.520;13.450;2023-12-20T21:32:26;20.80;85.40
49821;DHT22;36893;52.520;13.450;2023-12-20T21:42:26;20.70;85.40
49821;DHT22;36893;52.520;13.450;2023-12-20T21:52:27;20.70;85.40
49821;DHT22;36893;52.520;13.450;2023-12-20T22:02:28;20.70;85.40
49821;DHT22;36893;52.520;13.450;2023-12-20T22:12:29;20.70;85.40
49821;DHT22;36893;52.520;13.450;2023-12-20T22:22:30;20.70;85.40
49821;DHT22;36893;52.520;13.450;2023-12-20T22:32:30;20.60;85.40
49821;DHT22;36893;52.520;13.450;2023-12-20T22:42:34;20.60;85.40
49821;DHT22;36893;52.520;13.450;2023-12-20T22:52:35;20.60;85.30
49821;DHT22;36893;52.520;13.450;2023-12-20T23:02:37;20.70;85.30
49821;DHT22;36893;52.520;13.450;2023-12-20T23:12:40;20.60;85.30
49821;DHT22;36893;52.520;13.450;2023-12-20T23:22:41;20.60;85.40
49821;DHT22;36893;52.520;13.450;2023-12-20T23:32:42;20.60;85.30
49821;DHT22;36893;52.520;13.450;2023-12-20T23:42:43;20.60;85.30
49821;DHT22;36893;52.520;13.450;2023-12-20T23:52:43;20.70;85.30
